createdAt,value
2023-05-27T00:00:48.861Z,7.64
2023-05-27T00:01:50.422Z,7.61
2023-05-27T00:02:52.172Z,7.59
2023-05-27T00:03:53.950Z,7.54
2023-05-27T00:04:55.739Z,7.54
2023-05-27T00:05:57.259Z,7.56
2023-05-27T00:06:58.930Z,7.54
2023-05-27T00:08:00.528Z,7.53
2023-05-27T00:09:02.114Z,7.51
2023-05-27T00:10:03.891Z,7.50
2023-05-27T00:11:05.880Z,7.45
2023-05-27T00:12:07.260Z,7.48
2023-05-27T00:13:08.731Z,7.46
2023-05-27T00:14:10.362Z,7.46
2023-05-27T00:15:11.833Z,7.46
2023-05-27T00:16:13.964Z,7.48
2023-05-27T00:17:15.485Z,7.46
2023-05-27T00:18:17.034Z,7.39
2023-05-27T00:19:19.080Z,7.42
2023-05-27T00:20:20.756Z,7.40
2023-05-27T00:21:22.336Z,7.35
2023-05-27T00:22:24.040Z,7.36
2023-05-27T00:23:25.616Z,7.33
2023-05-27T00:24:27.440Z,7.16
2023-05-27T00:25:28.919Z,7.34
2023-05-27T00:26:30.392Z,7.32
2023-05-27T00:27:31.916Z,7.30
2023-05-27T00:28:33.436Z,7.29
2023-05-27T00:29:35.756Z,7.26
2023-05-27T00:30:37.596Z,7.24
2023-05-27T00:31:39.200Z,7.19
2023-05-27T00:32:40.759Z,7.21
2023-05-27T00:33:42.215Z,7.19
2023-05-27T00:34:43.682Z,7.19
2023-05-27T00:35:45.284Z,7.16
2023-05-27T00:36:46.749Z,7.17
2023-05-27T00:37:48.203Z,7.16
2023-05-27T00:38:49.836Z,7.18
2023-05-27T00:39:51.318Z,7.17
2023-05-27T00:40:54.382Z,7.16
2023-05-27T00:41:55.990Z,7.14
2023-05-27T00:42:57.777Z,7.15
2023-05-27T00:43:59.324Z,7.14
2023-05-27T00:45:00.789Z,7.13
2023-05-27T00:46:02.436Z,7.09
2023-05-27T00:47:04.057Z,7.04
2023-05-27T00:48:05.890Z,7.09
2023-05-27T00:49:07.542Z,7.07
2023-05-27T00:50:09.493Z,7.04
2023-05-27T00:51:11.038Z,7.05
2023-05-27T00:52:14.230Z,7.02
2023-05-27T00:53:17.901Z,7.02
2023-05-27T00:54:19.910Z,7.01
2023-05-27T00:55:21.379Z,7.01
2023-05-27T00:56:22.822Z,6.99
2023-05-27T00:57:24.477Z,6.97
2023-05-27T00:58:26.197Z,6.97
2023-05-27T00:59:27.950Z,6.95
2023-05-27T01:00:30.077Z,6.91
2023-05-27T01:01:31.714Z,6.90
2023-05-27T01:02:33.437Z,6.93
2023-05-27T01:03:35.670Z,6.90
2023-05-27T01:04:37.434Z,6.88
2023-05-27T01:05:39.276Z,6.87
2023-05-27T01:07:03.987Z,6.89
2023-05-27T01:08:12.977Z,6.85
2023-05-27T01:09:28.062Z,6.82
2023-05-27T01:10:53.041Z,6.84
2023-05-27T01:12:19.473Z,6.82
2023-05-27T01:13:27.168Z,6.79
2023-05-27T01:14:31.225Z,6.76
2023-05-27T01:15:34.349Z,6.74
2023-05-27T01:16:40.465Z,6.71
2023-05-27T01:17:45.798Z,6.71
2023-05-27T01:18:50.330Z,6.69
2023-05-27T01:19:53.141Z,6.71
2023-05-27T01:21:00.739Z,6.73
2023-05-27T01:22:03.229Z,6.66
2023-05-27T01:23:05.161Z,6.66
2023-05-27T01:24:07.093Z,6.67
2023-05-27T01:25:09.576Z,6.65
2023-05-27T01:26:11.282Z,6.66
2023-05-27T01:27:13.611Z,6.64
2023-05-27T01:28:15.112Z,6.59
2023-05-27T01:29:16.932Z,6.57
2023-05-27T01:30:18.467Z,6.57
2023-05-27T01:31:32.570Z,6.57
2023-05-27T01:32:54.242Z,6.51
2023-05-27T01:34:01.707Z,6.51
2023-05-27T01:35:18.775Z,6.52
2023-05-27T01:36:23.527Z,6.53
2023-05-27T01:37:26.774Z,6.52
2023-05-27T01:38:29.860Z,6.51
2023-05-27T01:39:32.578Z,6.48
2023-05-27T01:40:35.725Z,6.49
2023-05-27T01:41:37.605Z,6.45
2023-05-27T01:42:42.367Z,6.46
2023-05-27T01:43:44.475Z,6.44
2023-05-27T01:44:46.120Z,6.38
2023-05-27T01:45:47.685Z,6.40
2023-05-27T01:46:49.162Z,6.42
2023-05-27T01:47:51.750Z,6.41
2023-05-27T01:48:53.369Z,6.37
2023-05-27T01:49:54.843Z,6.37
2023-05-27T01:50:56.350Z,6.35
2023-05-27T01:51:57.902Z,6.30
2023-05-27T01:52:59.573Z,6.28
2023-05-27T01:54:01.050Z,6.31
2023-05-27T01:55:03.891Z,6.29
2023-05-27T01:56:05.923Z,6.30
2023-05-27T01:57:07.421Z,6.30
2023-05-27T01:58:08.946Z,6.28
2023-05-27T01:59:10.544Z,6.30
2023-05-27T02:00:12.945Z,6.28
2023-05-27T02:01:14.515Z,6.28
2023-05-27T02:02:16.148Z,6.25
2023-05-27T02:03:17.859Z,6.23
2023-05-27T02:04:19.486Z,6.25
2023-05-27T02:05:20.935Z,6.22
2023-05-27T02:06:22.945Z,6.20
2023-05-27T02:07:24.294Z,6.19
2023-05-27T02:08:26.097Z,6.16
2023-05-27T02:09:27.666Z,6.15
2023-05-27T02:10:29.575Z,6.14
2023-05-27T02:11:31.309Z,6.13
2023-05-27T02:12:32.804Z,6.08
2023-05-27T02:13:34.320Z,6.11
2023-05-27T02:14:39.533Z,6.07
2023-05-27T02:15:41.642Z,6.06
2023-05-27T02:16:43.416Z,6.10
2023-05-27T02:17:47.545Z,6.07
2023-05-27T02:18:49.978Z,6.05
2023-05-27T02:19:52.230Z,6.05
2023-05-27T02:20:53.705Z,6.06
2023-05-27T02:21:55.481Z,6.05
2023-05-27T02:22:57.021Z,6.02
2023-05-27T02:23:59.093Z,6.01
2023-05-27T02:25:00.456Z,5.97
2023-05-27T02:26:02.069Z,5.94
2023-05-27T02:27:03.734Z,5.91
2023-05-27T02:28:05.270Z,5.95
2023-05-27T02:29:06.782Z,5.94
2023-05-27T02:30:08.867Z,5.92
2023-05-27T02:31:10.627Z,5.91
2023-05-27T02:32:12.229Z,5.94
2023-05-27T02:33:13.801Z,5.91
2023-05-27T02:34:15.825Z,5.88
2023-05-27T02:35:17.367Z,5.88
2023-05-27T02:36:19.275Z,5.87
2023-05-27T02:37:20.831Z,5.84
2023-05-27T02:38:22.307Z,5.83
2023-05-27T02:39:23.968Z,5.81
2023-05-27T02:40:29.733Z,5.84
2023-05-27T02:41:31.173Z,5.82
2023-05-27T02:42:32.627Z,5.84
2023-05-27T02:43:34.090Z,5.83
2023-05-27T02:44:35.548Z,5.85
2023-05-27T02:45:37.544Z,5.83
2023-05-27T02:46:39.007Z,5.84
2023-05-27T02:47:40.528Z,5.85
2023-05-27T02:48:41.965Z,5.81
2023-05-27T02:49:43.449Z,5.80
2023-05-27T02:50:44.902Z,5.80
2023-05-27T02:51:46.346Z,5.78
2023-05-27T02:52:47.935Z,5.80
2023-05-27T02:53:51.139Z,5.77
2023-05-27T02:54:52.597Z,5.75
2023-05-27T02:55:54.281Z,5.76
2023-05-27T02:56:56.092Z,5.73
2023-05-27T02:57:57.630Z,5.76
2023-05-27T02:58:59.125Z,5.75
2023-05-27T03:00:00.590Z,5.74
2023-05-27T03:01:02.091Z,5.76
2023-05-27T03:02:03.680Z,5.72
2023-05-27T03:03:07.864Z,5.74
2023-05-27T03:04:09.459Z,5.74
2023-05-27T03:05:11.005Z,5.71
2023-05-27T03:06:12.498Z,5.74
2023-05-27T03:07:14.067Z,5.71
2023-05-27T03:08:16.196Z,5.70
2023-05-27T03:09:17.584Z,5.76
2023-05-27T03:10:19.059Z,5.76
2023-05-27T03:11:20.585Z,5.74
2023-05-27T03:12:22.175Z,5.75
2023-05-27T03:13:23.642Z,5.75
2023-05-27T03:14:25.139Z,5.71
2023-05-27T03:15:26.654Z,5.73
2023-05-27T03:16:28.151Z,5.71
2023-05-27T03:17:29.714Z,5.74
2023-05-27T03:18:31.189Z,5.70
2023-05-27T03:19:32.636Z,5.74
2023-05-27T03:20:34.148Z,5.78
2023-05-27T03:21:36.905Z,5.76
2023-05-27T03:22:38.366Z,5.79
2023-05-27T03:23:39.867Z,5.76
2023-05-27T03:24:41.535Z,5.75
2023-05-27T03:25:43.094Z,5.78
2023-05-27T03:26:44.733Z,5.83
2023-05-27T03:27:46.220Z,5.82
2023-05-27T03:28:47.699Z,5.79
2023-05-27T03:29:49.159Z,5.82
2023-05-27T03:30:50.755Z,5.81
2023-05-27T03:31:52.355Z,5.83
2023-05-27T03:32:54.023Z,5.87
2023-05-27T03:33:55.626Z,5.85
2023-05-27T03:34:57.321Z,5.87
2023-05-27T03:35:58.795Z,5.87
2023-05-27T03:37:00.258Z,5.86
2023-05-27T03:38:01.998Z,5.90
2023-05-27T03:39:05.270Z,5.90
2023-05-27T03:40:07.420Z,5.92
2023-05-27T03:41:09.406Z,5.93
2023-05-27T03:42:10.841Z,5.92
2023-05-27T03:43:12.408Z,5.94
2023-05-27T03:44:13.880Z,5.98
2023-05-27T03:45:15.677Z,6.01
2023-05-27T03:46:17.186Z,6.00
2023-05-27T03:47:21.549Z,6.03
2023-05-27T03:48:23.122Z,6.01
2023-05-27T03:49:24.646Z,6.02
2023-05-27T03:50:26.159Z,6.05
2023-05-27T03:51:28.080Z,6.07
2023-05-27T03:52:29.591Z,6.11
2023-05-27T03:53:31.070Z,6.12
2023-05-27T03:54:32.522Z,6.14
2023-05-27T03:55:34.032Z,6.17
2023-05-27T03:56:35.562Z,6.15
2023-05-27T03:57:37.344Z,6.16
2023-05-27T03:58:38.829Z,6.21
2023-05-27T03:59:40.366Z,6.23
2023-05-27T04:00:42.751Z,6.24
2023-05-27T04:01:48.123Z,6.27
2023-05-27T04:02:50.480Z,6.32
2023-05-27T04:03:52.265Z,6.33
2023-05-27T04:04:54.041Z,6.36
2023-05-27T04:05:57.714Z,6.38
2023-05-27T04:06:59.452Z,6.43
2023-05-27T04:08:01.870Z,6.46
2023-05-27T04:09:04.220Z,6.49
2023-05-27T04:10:06.661Z,6.51
2023-05-27T04:11:12.074Z,6.56
2023-05-27T04:12:13.547Z,6.61
2023-05-27T04:13:15.037Z,6.64
2023-05-27T04:14:16.511Z,6.68
2023-05-27T04:15:18.077Z,6.74
2023-05-27T04:16:19.910Z,6.73
2023-05-27T04:17:21.575Z,6.81
2023-05-27T04:18:23.390Z,7.01
2023-05-27T04:19:24.979Z,7.19
2023-05-27T04:20:26.700Z,7.38
2023-05-27T04:21:28.603Z,7.55
2023-05-27T04:22:30.064Z,7.67
2023-05-27T04:23:31.535Z,7.85
2023-05-27T04:24:32.980Z,8.08
2023-05-27T04:25:35.960Z,8.18
2023-05-27T04:26:37.432Z,8.31
2023-05-27T04:27:38.986Z,8.55
2023-05-27T04:28:40.555Z,8.74
2023-05-27T04:29:44.080Z,8.86
2023-05-27T04:30:49.347Z,9.10
2023-05-27T04:31:51.735Z,9.24
2023-05-27T04:32:53.682Z,9.48
2023-05-27T04:33:56.337Z,9.66
2023-05-27T04:34:58.208Z,9.68
2023-05-27T04:35:59.686Z,9.68
2023-05-27T04:37:02.165Z,9.59
2023-05-27T04:38:03.681Z,9.53
2023-05-27T04:39:05.560Z,9.53
2023-05-27T04:40:09.213Z,9.51
2023-05-27T04:41:10.670Z,9.47
2023-05-27T04:42:13.434Z,9.50
2023-05-27T04:43:15.139Z,9.46
2023-05-27T04:44:18.182Z,9.49
2023-05-27T04:45:19.750Z,9.43
2023-05-27T04:46:22.001Z,9.44
2023-05-27T04:47:23.582Z,9.42
2023-05-27T04:48:25.203Z,9.45
2023-05-27T04:49:26.742Z,9.48
2023-05-27T04:50:28.264Z,9.49
2023-05-27T04:51:29.751Z,9.57
2023-05-27T04:52:37.943Z,9.62
2023-05-27T04:53:39.454Z,9.74
2023-05-27T04:54:40.986Z,9.85
2023-05-27T04:55:42.761Z,10.02
2023-05-27T04:56:44.589Z,10.02
2023-05-27T04:57:46.526Z,10.16
2023-05-27T04:58:49.698Z,10.20
2023-05-27T05:00:19.931Z,10.41
2023-05-27T05:01:23.427Z,10.57
2023-05-27T05:02:28.275Z,10.81
2023-05-27T05:03:40.515Z,10.87
2023-05-27T05:04:42.269Z,11.06
2023-05-27T05:05:43.744Z,11.17
2023-05-27T05:06:45.249Z,11.40
2023-05-27T05:07:46.823Z,11.43
2023-05-27T05:08:48.516Z,11.50
2023-05-27T05:09:49.941Z,11.50
2023-05-27T05:10:52.211Z,11.52
2023-05-27T05:11:53.817Z,11.70
2023-05-27T05:12:55.410Z,11.84
2023-05-27T05:13:56.870Z,11.84
2023-05-27T05:14:58.928Z,11.89
2023-05-27T05:16:00.647Z,11.90
2023-05-27T05:17:02.296Z,12.02
2023-05-27T05:18:04.019Z,12.16
2023-05-27T05:19:05.789Z,12.06
2023-05-27T05:20:09.777Z,12.04
2023-05-27T05:21:11.269Z,12.02
2023-05-27T05:22:15.371Z,12.03
2023-05-27T05:23:17.550Z,12.05
2023-05-27T05:24:19.031Z,12.15
2023-05-27T05:25:20.518Z,12.37
2023-05-27T05:26:22.025Z,12.38
2023-05-27T05:27:24.459Z,12.32
2023-05-27T05:28:26.129Z,12.23
2023-05-27T05:29:27.637Z,12.26
2023-05-27T05:30:29.111Z,12.39
2023-05-27T05:31:30.764Z,12.41
2023-05-27T05:32:32.242Z,12.47
2023-05-27T05:33:34.079Z,12.32
2023-05-27T05:34:35.634Z,12.35
2023-05-27T05:35:37.299Z,12.49
2023-05-27T05:36:38.793Z,12.44
2023-05-27T05:37:40.465Z,12.45
2023-05-27T05:38:41.999Z,12.38
2023-05-27T05:39:44.042Z,12.35
2023-05-27T05:40:49.979Z,12.41
2023-05-27T05:41:52.073Z,12.40
2023-05-27T05:42:53.621Z,12.48
2023-05-27T05:43:55.217Z,12.49
2023-05-27T05:44:56.663Z,12.65
2023-05-27T05:45:58.262Z,12.74
2023-05-27T05:46:59.749Z,12.66
2023-05-27T05:48:01.319Z,12.63
2023-05-27T05:49:02.772Z,12.73
2023-05-27T05:50:04.520Z,12.66
2023-05-27T05:51:06.047Z,12.71
2023-05-27T05:52:07.791Z,12.61
2023-05-27T05:53:11.060Z,12.73
2023-05-27T05:54:12.942Z,12.78
2023-05-27T05:55:14.404Z,12.74
2023-05-27T05:56:15.999Z,12.80
2023-05-27T05:57:17.510Z,12.71
2023-05-27T05:58:19.141Z,12.78
2023-05-27T05:59:21.176Z,12.87
2023-05-27T06:00:23.562Z,12.93
2023-05-27T06:01:25.112Z,12.87
2023-05-27T06:02:26.617Z,12.91
2023-05-27T06:03:28.347Z,12.89
2023-05-27T06:04:30.014Z,13.06
2023-05-27T06:05:31.541Z,13.08
2023-05-27T06:06:33.069Z,13.17
2023-05-27T06:07:34.516Z,13.26
2023-05-27T06:08:35.988Z,13.21
2023-05-27T06:09:37.501Z,13.31
2023-05-27T06:10:38.942Z,13.27
2023-05-27T06:11:40.516Z,13.30
2023-05-27T06:12:41.967Z,13.28
2023-05-27T06:13:43.449Z,13.33
2023-05-27T06:14:44.984Z,13.42
2023-05-27T06:15:46.591Z,13.50
2023-05-27T06:16:48.122Z,13.45
2023-05-27T06:17:49.687Z,13.33
2023-05-27T06:18:51.165Z,13.35
2023-05-27T06:19:52.654Z,13.34
2023-05-27T06:20:54.404Z,13.33
2023-05-27T06:21:55.973Z,13.40
2023-05-27T06:22:57.436Z,13.47
2023-05-27T06:23:59.979Z,13.46
2023-05-27T06:25:01.447Z,13.51
2023-05-27T06:26:03.660Z,13.54
2023-05-27T06:27:05.353Z,13.58
2023-05-27T06:28:07.038Z,13.55
2023-05-27T06:29:08.478Z,13.44
2023-05-27T06:30:10.666Z,13.49
2023-05-27T06:31:12.740Z,13.54
2023-05-27T06:32:14.377Z,13.53
2023-05-27T06:33:15.828Z,13.52
2023-05-27T06:34:17.700Z,13.55
2023-05-27T06:35:19.730Z,13.65
2023-05-27T06:36:21.177Z,13.58
2023-05-27T06:37:22.803Z,13.65
2023-05-27T06:38:24.366Z,13.70
2023-05-27T06:39:25.899Z,13.63
2023-05-27T06:40:27.461Z,13.71
2023-05-27T06:41:28.951Z,13.69
2023-05-27T06:42:30.535Z,13.66
2023-05-27T06:43:31.969Z,13.75
2023-05-27T06:44:33.469Z,13.73
2023-05-27T06:45:35.065Z,13.64
2023-05-27T06:46:36.674Z,13.64
2023-05-27T06:47:39.431Z,13.77
2023-05-27T06:48:41.250Z,13.81
2023-05-27T06:49:42.737Z,13.93
2023-05-27T06:50:44.209Z,13.92
2023-05-27T06:51:45.959Z,13.82
2023-05-27T06:52:47.448Z,13.87
2023-05-27T06:53:48.880Z,13.80
2023-05-27T06:54:50.388Z,13.91
2023-05-27T06:55:51.918Z,13.86
2023-05-27T06:56:53.373Z,13.74
2023-05-27T06:57:54.850Z,13.90
2023-05-27T06:58:56.294Z,13.76
2023-05-27T06:59:57.770Z,13.65
2023-05-27T07:00:59.270Z,13.75
2023-05-27T07:02:00.865Z,13.73
2023-05-27T07:03:02.494Z,13.78
2023-05-27T07:04:04.618Z,13.81
2023-05-27T07:05:06.678Z,13.83
2023-05-27T07:06:08.184Z,13.71
2023-05-27T07:07:09.721Z,13.70
2023-05-27T07:08:11.199Z,13.71
2023-05-27T07:09:13.260Z,13.74
2023-05-27T07:10:14.817Z,13.84
2023-05-27T07:11:17.282Z,13.87
2023-05-27T07:12:19.199Z,13.83
2023-05-27T07:13:20.598Z,13.84
2023-05-27T07:14:22.102Z,13.91
2023-05-27T07:15:23.586Z,13.91
2023-05-27T07:16:25.167Z,13.97
2023-05-27T07:17:26.771Z,14.03
2023-05-27T07:18:28.235Z,14.03
2023-05-27T07:19:29.752Z,14.09
2023-05-27T07:20:32.791Z,14.11
2023-05-27T07:21:35.708Z,14.00
2023-05-27T07:22:37.150Z,14.00
2023-05-27T07:23:38.601Z,14.01
2023-05-27T07:24:40.036Z,14.08
2023-05-27T07:25:41.492Z,14.07
2023-05-27T07:26:42.993Z,14.11
2023-05-27T07:27:44.729Z,14.10
2023-05-27T07:28:46.906Z,14.17
2023-05-27T07:29:48.396Z,14.36
2023-05-27T07:30:50.055Z,14.48
2023-05-27T07:31:51.819Z,14.53
2023-05-27T07:32:54.695Z,14.44
2023-05-27T07:33:56.614Z,14.27
2023-05-27T07:34:58.227Z,14.30
2023-05-27T07:35:59.692Z,14.29
2023-05-27T07:37:01.190Z,14.16
2023-05-27T07:38:03.930Z,14.20
2023-05-27T07:39:05.444Z,14.22
2023-05-27T07:40:07.249Z,14.39
2023-05-27T07:41:08.706Z,14.40
2023-05-27T07:42:10.287Z,14.48
2023-05-27T07:43:12.035Z,14.58
2023-05-27T07:44:13.486Z,14.59
2023-05-27T07:45:15.065Z,14.65
2023-05-27T07:46:16.575Z,14.64
2023-05-27T07:47:18.221Z,14.49
2023-05-27T07:48:19.656Z,14.58
2023-05-27T07:49:21.796Z,14.53
2023-05-27T07:50:23.370Z,14.35
2023-05-27T07:51:24.946Z,14.44
2023-05-27T07:52:26.427Z,14.57
2023-05-27T07:53:27.966Z,14.68
2023-05-27T07:54:29.586Z,14.83
2023-05-27T07:55:31.922Z,14.92
2023-05-27T07:56:35.206Z,14.89
2023-05-27T07:57:36.870Z,14.93
2023-05-27T07:58:38.340Z,14.94
2023-05-27T07:59:39.799Z,14.90
2023-05-27T08:00:41.427Z,14.89
2023-05-27T08:01:43.043Z,14.84
2023-05-27T08:02:45.039Z,14.91
2023-05-27T08:03:46.773Z,14.88
2023-05-27T08:04:48.576Z,14.92
2023-05-27T08:05:50.105Z,14.84
2023-05-27T08:06:51.586Z,14.86
2023-05-27T08:07:53.066Z,14.84
2023-05-27T08:08:54.506Z,14.91
2023-05-27T08:09:56.111Z,14.91
2023-05-27T08:10:58.147Z,14.96
2023-05-27T08:11:59.970Z,14.97
2023-05-27T08:13:01.508Z,14.97
2023-05-27T08:14:03.042Z,14.99
2023-05-27T08:15:04.975Z,15.06
2023-05-27T08:16:06.523Z,15.07
2023-05-27T08:17:08.212Z,15.14
2023-05-27T08:18:09.834Z,15.20
2023-05-27T08:19:11.398Z,15.16
2023-05-27T08:20:13.227Z,15.10
2023-05-27T08:21:14.666Z,15.12
2023-05-27T08:22:16.317Z,15.11
2023-05-27T08:23:18.871Z,15.02
2023-05-27T08:24:22.776Z,15.13
2023-05-27T08:25:24.322Z,15.12
2023-05-27T08:26:27.184Z,15.17
2023-05-27T08:27:50.602Z,15.29
2023-05-27T08:28:52.060Z,15.34
2023-05-27T08:29:53.570Z,15.29
2023-05-27T08:30:55.246Z,15.46
2023-05-27T08:31:57.070Z,15.50
2023-05-27T08:32:59.254Z,15.54
2023-05-27T08:34:00.925Z,15.50
2023-05-27T08:35:02.414Z,15.23
2023-05-27T08:36:04.013Z,15.25
2023-05-27T08:37:06.669Z,15.31
2023-05-27T08:38:08.139Z,15.26
2023-05-27T08:39:10.134Z,15.35
2023-05-27T08:40:15.729Z,15.55
2023-05-27T08:41:17.572Z,15.69
2023-05-27T08:42:19.057Z,15.63
2023-05-27T08:43:22.818Z,15.64
2023-05-27T08:44:24.586Z,15.49
2023-05-27T08:45:26.411Z,15.51
2023-05-27T08:46:28.246Z,15.52
2023-05-27T08:47:30.842Z,15.49
2023-05-27T08:48:32.341Z,15.56
2023-05-27T08:49:33.897Z,15.67
2023-05-27T08:50:35.608Z,15.81
2023-05-27T08:51:40.919Z,15.81
2023-05-27T08:52:48.300Z,15.96
2023-05-27T08:53:49.844Z,15.89
2023-05-27T08:54:51.704Z,15.89
2023-05-27T08:55:55.205Z,15.81
2023-05-27T08:57:00.398Z,15.75
2023-05-27T08:58:02.976Z,15.86
2023-05-27T08:59:04.530Z,15.94
2023-05-27T09:00:12.475Z,15.97
2023-05-27T09:01:17.630Z,16.13
2023-05-27T09:02:22.414Z,16.31
2023-05-27T09:03:24.363Z,16.26
2023-05-27T09:04:26.545Z,16.11
2023-05-27T09:05:29.818Z,16.19
2023-05-27T09:06:31.814Z,16.19
2023-05-27T09:07:33.279Z,16.26
2023-05-27T09:08:49.757Z,16.18
2023-05-27T09:09:59.471Z,16.23
2023-05-27T09:11:02.279Z,16.23
2023-05-27T09:12:04.781Z,16.19
2023-05-27T09:13:06.418Z,16.16
2023-05-27T09:14:07.942Z,16.27
2023-05-27T09:15:09.727Z,16.23
2023-05-27T09:16:11.386Z,16.25
2023-05-27T09:17:12.849Z,16.24
2023-05-27T09:18:16.456Z,16.23
2023-05-27T09:19:19.713Z,16.25
2023-05-27T09:20:26.926Z,16.22
2023-05-27T09:21:28.615Z,16.19
2023-05-27T09:22:32.104Z,16.12
2023-05-27T09:23:41.058Z,16.21
2023-05-27T09:24:42.564Z,16.33
2023-05-27T09:25:44.033Z,16.45
2023-05-27T09:26:45.642Z,16.55
2023-05-27T09:27:47.187Z,16.49
2023-05-27T09:28:48.659Z,16.33
2023-05-27T09:29:50.190Z,16.37
2023-05-27T09:31:03.264Z,16.45
2023-05-27T09:32:07.495Z,16.34
2023-05-27T09:33:09.573Z,16.54
2023-05-27T09:34:18.015Z,16.60
2023-05-27T09:35:19.571Z,16.64
2023-05-27T09:36:23.438Z,16.82
2023-05-27T09:37:36.037Z,16.74
2023-05-27T09:38:38.067Z,16.75
2023-05-27T09:39:40.199Z,16.71
2023-05-27T09:40:45.185Z,16.57
2023-05-27T09:41:57.088Z,16.56
2023-05-27T09:42:58.683Z,16.75
2023-05-27T09:44:01.454Z,16.82
2023-05-27T09:45:07.080Z,16.98
2023-05-27T09:46:13.373Z,17.09
2023-05-27T09:47:18.811Z,17.10
2023-05-27T09:48:21.565Z,17.09
2023-05-27T09:49:26.546Z,17.06
2023-05-27T09:50:29.313Z,17.05
2023-05-27T09:51:33.131Z,17.12
2023-05-27T09:52:43.978Z,17.39
2023-05-27T09:53:54.384Z,17.09
2023-05-27T09:54:58.306Z,17.14
2023-05-27T09:56:00.918Z,17.36
2023-05-27T09:57:04.432Z,17.45
2023-05-27T09:58:06.980Z,17.38
2023-05-27T09:59:09.265Z,17.34
2023-05-27T10:00:12.797Z,17.43
2023-05-27T10:01:14.571Z,17.35
2023-05-27T10:02:19.527Z,17.37
2023-05-27T10:03:22.593Z,17.52
2023-05-27T10:04:24.548Z,17.57
2023-05-27T10:05:28.498Z,17.67
2023-05-27T10:06:30.743Z,17.55
2023-05-27T10:08:54.413Z,17.70
2023-05-27T10:09:55.910Z,17.73
2023-05-27T10:10:57.660Z,17.81
2023-05-27T10:11:59.883Z,17.96
2023-05-27T10:13:02.430Z,18.00
2023-05-27T10:14:04.628Z,17.95
2023-05-27T10:15:07.065Z,17.78
2023-05-27T10:16:20.579Z,17.89
2023-05-27T10:17:22.160Z,17.98
2023-05-27T10:18:26.779Z,18.04
2023-05-27T10:19:28.241Z,18.10
2023-05-27T10:20:32.747Z,17.88
2023-05-27T10:21:34.459Z,17.90
2023-05-27T10:22:43.858Z,18.12
2023-05-27T10:24:03.165Z,18.15
2023-05-27T10:25:14.536Z,18.13
2023-05-27T10:26:16.380Z,18.13
2023-05-27T10:27:17.749Z,18.18
2023-05-27T10:28:29.654Z,18.28
2023-05-27T10:29:41.517Z,18.46
2023-05-27T10:30:47.165Z,18.52
2023-05-27T10:31:52.080Z,18.46
2023-05-27T10:32:55.066Z,18.29
2023-05-27T10:33:58.819Z,18.42
2023-05-27T10:35:00.272Z,18.52
2023-05-27T10:36:07.386Z,18.55
2023-05-27T10:37:09.106Z,18.59
2023-05-27T10:38:20.000Z,18.45
2023-05-27T10:39:21.558Z,18.55
2023-05-27T10:40:26.871Z,18.74
2023-05-27T10:41:28.508Z,18.73
2023-05-27T10:42:30.035Z,18.89
2023-05-27T10:43:32.313Z,19.02
2023-05-27T10:44:33.764Z,18.88
2023-05-27T10:45:35.463Z,18.78
2023-05-27T10:46:44.482Z,18.95
2023-05-27T10:47:47.742Z,19.00
2023-05-27T10:48:49.258Z,18.79
2023-05-27T10:49:51.294Z,18.75
2023-05-27T10:50:54.408Z,18.87
2023-05-27T10:51:58.698Z,18.73
2023-05-27T10:53:00.624Z,19.17
2023-05-27T10:54:28.097Z,18.93
2023-05-27T10:55:27.557Z,19.77
2023-05-27T10:56:29.174Z,19.55
2023-05-27T10:57:31.654Z,19.43
2023-05-27T10:58:39.318Z,19.67
2023-05-27T10:59:55.487Z,19.57
2023-05-27T11:01:02.152Z,19.74
2023-05-27T11:02:05.449Z,19.48
2023-05-27T11:03:17.530Z,19.91
2023-05-27T11:04:19.477Z,20.14
2023-05-27T11:05:21.565Z,20.29
2023-05-27T11:06:25.371Z,20.52
2023-05-27T11:07:26.972Z,20.88
2023-05-27T11:08:28.849Z,20.38
2023-05-27T11:09:30.218Z,20.46
2023-05-27T11:10:31.937Z,20.38
2023-05-27T11:11:33.440Z,20.07
2023-05-27T11:12:35.577Z,20.46
2023-05-27T11:13:45.569Z,20.37
2023-05-27T11:14:53.812Z,20.75
2023-05-27T11:15:55.604Z,20.97
2023-05-27T11:16:57.083Z,21.14
2023-05-27T11:18:03.447Z,21.16
2023-05-27T11:19:04.905Z,20.98
2023-05-27T11:20:08.419Z,20.71
2023-05-27T11:21:11.821Z,20.64
2023-05-27T11:22:14.659Z,21.09
2023-05-27T11:23:16.565Z,21.51
2023-05-27T11:24:19.329Z,21.51
2023-05-27T11:25:24.437Z,21.88
2023-05-27T11:26:26.525Z,21.70
2023-05-27T11:27:38.684Z,21.32
2023-05-27T11:28:48.840Z,21.47
2023-05-27T11:29:52.386Z,21.95
2023-05-27T11:31:03.073Z,21.19
2023-05-27T11:32:06.497Z,21.41
2023-05-27T11:33:11.797Z,21.28
2023-05-27T11:34:21.861Z,21.36
2023-05-27T11:35:23.369Z,21.35
2023-05-27T11:36:30.037Z,21.42
2023-05-27T11:37:36.123Z,21.36
2023-05-27T11:38:55.135Z,21.40
2023-05-27T11:39:56.677Z,21.52
2023-05-27T11:41:08.333Z,21.57
2023-05-27T11:42:09.823Z,21.90
2023-05-27T11:43:17.911Z,22.19
2023-05-27T11:44:26.217Z,22.45
2023-05-27T11:45:29.385Z,22.94
2023-05-27T11:46:35.113Z,22.91
2023-05-27T11:47:42.570Z,22.69
2023-05-27T11:48:44.807Z,22.51
2023-05-27T11:49:53.493Z,22.59
2023-05-27T11:50:55.701Z,22.69
2023-05-27T11:51:57.803Z,23.14
2023-05-27T11:53:03.919Z,23.27
2023-05-27T11:54:05.484Z,23.16
2023-05-27T11:55:15.503Z,23.05
2023-05-27T11:56:17.037Z,23.37
2023-05-27T11:57:18.548Z,23.54
2023-05-27T11:58:20.008Z,23.17
2023-05-27T11:59:22.887Z,23.01
2023-05-27T12:00:24.734Z,23.12
2023-05-27T12:01:29.640Z,23.35
2023-05-27T12:02:31.206Z,23.10
2023-05-27T12:03:35.489Z,23.10
2023-05-27T12:04:37.012Z,23.22
2023-05-27T12:05:38.508Z,23.48
2023-05-27T12:06:41.461Z,23.54
2023-05-27T12:07:44.631Z,24.00
2023-05-27T12:08:46.554Z,23.59
2023-05-27T12:09:50.254Z,23.30
2023-05-27T12:10:54.765Z,23.49
2023-05-27T12:11:56.314Z,23.41
2023-05-27T12:13:07.573Z,22.19
2023-05-27T12:14:09.692Z,22.71
2023-05-27T12:15:11.561Z,22.89
2023-05-27T12:16:13.080Z,22.78
2023-05-27T12:17:14.759Z,23.08
2023-05-27T12:18:16.266Z,23.00
2023-05-27T12:19:18.760Z,23.44
2023-05-27T12:20:21.315Z,23.79
2023-05-27T12:21:22.910Z,23.15
2023-05-27T12:22:24.658Z,22.61
2023-05-27T12:23:26.322Z,22.82
2023-05-27T12:24:27.813Z,22.26
2023-05-27T12:25:29.313Z,22.90
2023-05-27T12:26:31.634Z,23.08
2023-05-27T12:27:33.116Z,23.56
2023-05-27T12:28:35.858Z,23.47
2023-05-27T12:29:37.986Z,23.45
2023-05-27T12:30:39.575Z,23.14
2023-05-27T12:31:41.440Z,23.58
2023-05-27T12:32:43.186Z,23.42
2023-05-27T12:33:45.246Z,23.21
2023-05-27T12:34:46.817Z,23.34
2023-05-27T12:35:48.413Z,23.46
2023-05-27T12:36:49.875Z,23.44
2023-05-27T12:37:51.646Z,23.58
2023-05-27T12:38:52.994Z,23.66
2023-05-27T12:39:54.643Z,23.60
2023-05-27T12:40:59.232Z,24.05
2023-05-27T12:42:01.935Z,24.26
2023-05-27T12:43:07.198Z,24.26
2023-05-27T12:44:08.642Z,24.07
2023-05-27T12:45:10.996Z,24.20
2023-05-27T12:46:12.545Z,23.56
2023-05-27T12:47:14.147Z,23.59
2023-05-27T12:48:15.744Z,23.78
2023-05-27T12:49:17.212Z,23.55
2023-05-27T12:50:19.107Z,23.70
2023-05-27T12:51:20.593Z,23.56
2023-05-27T12:52:22.049Z,23.49
2023-05-27T12:53:24.040Z,23.78
2023-05-27T12:54:25.549Z,23.97
2023-05-27T12:55:27.193Z,23.66
2023-05-27T12:56:29.084Z,23.36
2023-05-27T12:57:30.683Z,23.26
2023-05-27T12:58:32.179Z,23.56
2023-05-27T12:59:34.522Z,23.72
2023-05-27T13:00:36.068Z,23.73
2023-05-27T13:01:37.675Z,23.80
2023-05-27T13:02:39.696Z,23.76
2023-05-27T13:03:42.226Z,24.03
2023-05-27T13:04:43.781Z,23.98
2023-05-27T13:05:45.731Z,24.18
2023-05-27T13:06:47.375Z,24.31
2023-05-27T13:07:57.258Z,24.28
2023-05-27T13:08:58.758Z,24.09
2023-05-27T13:10:06.082Z,24.56
2023-05-27T13:11:08.603Z,24.53
2023-05-27T13:12:10.179Z,23.98
2023-05-27T13:13:11.941Z,24.13
2023-05-27T13:14:13.279Z,24.31
2023-05-27T13:15:15.116Z,24.43
2023-05-27T13:16:16.583Z,23.71
2023-05-27T13:17:18.153Z,23.59
2023-05-27T13:18:19.599Z,24.02
2023-05-27T13:19:21.505Z,23.90
2023-05-27T13:20:25.010Z,23.75
2023-05-27T13:21:26.688Z,23.76
2023-05-27T13:22:28.184Z,23.94
2023-05-27T13:23:30.203Z,24.30
2023-05-27T13:24:31.694Z,24.29
2023-05-27T13:25:33.323Z,23.89
2023-05-27T13:26:35.140Z,24.46
2023-05-27T13:27:36.638Z,24.59
2023-05-27T13:28:38.087Z,24.50
2023-05-27T13:29:41.945Z,24.75
2023-05-27T13:30:43.504Z,25.07
2023-05-27T13:31:46.976Z,24.73
2023-05-27T13:32:48.822Z,24.76
2023-05-27T13:33:50.313Z,24.95
2023-05-27T13:34:52.603Z,24.68
2023-05-27T13:35:54.142Z,24.09
2023-05-27T13:36:55.630Z,23.47
2023-05-27T13:37:57.160Z,23.09
2023-05-27T13:38:58.604Z,23.42
2023-05-27T13:40:00.085Z,23.74